sensor_id;sensor_type;location;lat;lon;timestamp;pressure;altitude;pressure_sealevel;temperature;humidity
80116;BME280;69423;47.608;19.366;2023-04-15T12:52:45;98108.13;;;11.90;58.75
80116;BME280;69423;47.608;19.366;2023-04-15T12:53:16;98104.81;;;11.95;58.33
80116;BME280;69423;47.608;19.366;2023-04-15T12:53:47;98108.13;;;11.90;57.76
80116;BME280;69423;47.608;19.366;2023-04-15T12:54:19;98099.50;;;11.88;58.01
80116;BME280;69423;47.608;19.366;2023-04-15T12:54:52;98114.06;;;11.92;58.10
80116;BME280;69423;47.608;19.366;2023-04-15T12:55:23;98109.75;;;11.91;58.03
80116;BME280;69423;47.608;19.366;2023-04-15T12:55:53;98102.94;;;11.95;58.17
80116;BME280;69423;47.608;19.366;2023-04-15T12:56:24;98106.41;;;12.03;58.01
80116;BME280;69423;47.608;19.366;2023-04-15T12:56:57;98114.22;;;12.04;58.72
80116;BME280;69423;47.608;19.366;2023-04-15T12:57:28;98114.59;;;12.08;58.72
80116;BME280;69423;47.608;19.366;2023-04-15T12:57:59;98115.00;;;12.11;58.64
80116;BME280;69423;47.608;19.366;2023-04-15T12:58:30;98109.91;;;12.03;57.42
80116;BME280;69423;47.608;19.366;2023-04-15T12:59:01;98112.84;;;11.88;57.25
80116;BME280;69423;47.608;19.366;2023-04-15T12:59:32;98107.06;;;11.91;58.18
80116;BME280;69423;47.608;19.366;2023-04-15T13:00:03;98109.28;;;12.01;58.59
80116;BME280;69423;47.608;19.366;2023-04-15T13:00:37;98113.22;;;11.99;57.99
80116;BME280;69423;47.608;19.366;2023-04-15T13:01:09;98111.81;;;11.89;57.69
80116;BME280;69423;47.608;19.366;2023-04-15T13:01:40;98119.63;;;11.84;57.94
80116;BME280;69423;47.608;19.366;2023-04-15T13:02:11;98111.63;;;11.78;57.51
80116;BME280;69423;47.608;19.366;2023-04-15T13:02:43;98115.97;;;11.72;57.90
80116;BME280;69423;47.608;19.366;2023-04-15T13:03:15;98121.50;;;11.77;58.37
80116;BME280;69423;47.608;19.366;2023-04-15T13:03:45;98111.50;;;11.59;57.80
80116;BME280;69423;47.608;19.366;2023-04-15T13:04:18;98111.69;;;11.58;58.06
80116;BME280;69423;47.608;19.366;2023-04-15T13:04:49;98123.19;;;11.58;58.55
80116;BME280;69423;47.608;19.366;2023-04-15T13:05:20;98126.88;;;11.64;58.54
80116;BME280;69423;47.608;19.366;2023-04-15T13:05:51;98125.25;;;11.63;59.07
80116;BME280;69423;47.608;19.366;2023-04-15T13:06:22;98123.78;;;11.60;59.29
80116;BME280;69423;47.608;19.366;2023-04-15T13:06:54;98130.44;;;11.44;59.29
80116;BME280;69423;47.608;19.366;2023-04-15T13:07:25;98128.78;;;11.43;59.05
80116;BME280;69423;47.608;19.366;2023-04-15T13:07:56;98124.91;;;11.26;58.79
80116;BME280;69423;47.608;19.366;2023-04-15T13:08:27;98123.47;;;11.30;58.94
80116;BME280;69423;47.608;19.366;2023-04-15T13:08:59;98126.31;;;11.35;59.10
80116;BME280;69423;47.608;19.366;2023-04-15T13:09:31;98127.34;;;11.41;59.65
80116;BME280;69423;47.608;19.366;2023-04-15T13:10:02;98120.38;;;11.33;59.39
80116;BME280;69423;47.608;19.366;2023-04-15T13:10:34;98125.09;;;11.31;59.80
80116;BME280;69423;47.608;19.366;2023-04-15T13:11:08;98123.88;;;11.27;59.83
80116;BME280;69423;47.608;19.366;2023-04-15T13:11:39;98119.16;;;11.29;60.00
80116;BME280;69423;47.608;19.366;2023-04-15T13:12:10;98120.38;;;11.33;60.89
80116;BME280;69423;47.608;19.366;2023-04-15T13:12:43;98126.31;;;11.35;59.91
80116;BME280;69423;47.608;19.366;2023-04-15T13:13:16;98128.38;;;11.33;60.49
80116;BME280;69423;47.608;19.366;2023-04-15T13:13:47;98131.25;;;11.38;59.72
80116;BME280;69423;47.608;19.366;2023-04-15T13:14:18;98121.63;;;11.30;58.09
80116;BME280;69423;47.608;19.366;2023-04-15T13:14:49;98124.72;;;11.27;58.90
80116;BME280;69423;47.608;19.366;2023-04-15T13:15:19;98129.22;;;11.27;59.54
80116;BME280;69423;47.608;19.366;2023-04-15T13:15:52;98124.47;;;11.29;59.72
80116;BME280;69423;47.608;19.366;2023-04-15T13:16:23;98126.75;;;11.32;59.56
80116;BME280;69423;47.608;19.366;2023-04-15T13:16:54;98133.31;;;11.36;60.13
80116;BME280;69423;47.608;19.366;2023-04-15T13:17:25;98126.53;;;11.40;59.99
80116;BME280;69423;47.608;19.366;2023-04-15T13:17:56;98121.63;;;11.30;59.67
80116;BME280;69423;47.608;19.366;2023-04-15T13:18:27;98128.59;;;11.31;59.92
80116;BME280;69423;47.608;19.366;2023-04-15T13:18:58;98130.03;;;11.34;60.28
80116;BME280;69423;47.608;19.366;2023-04-15T13:19:29;98132.09;;;11.25;60.24
80116;BME280;69423;47.608;19.366;2023-04-15T13:20:00;98130.91;;;11.14;59.91
80116;BME280;69423;47.608;19.366;2023-04-15T13:20:31;98131.47;;;11.17;60.26
80116;BME280;69423;47.608;19.366;2023-04-15T13:21:02;98132.09;;;11.25;60.98
80116;BME280;69423;47.608;19.366;2023-04-15T13:21:33;98125.53;;;11.28;60.78
80116;BME280;69423;47.608;19.366;2023-04-15T13:22:05;98134.97;;;11.24;60.11
80116;BME280;69423;47.608;19.366;2023-04-15T13:22:37;98132.91;;;11.26;60.92
80116;BME280;69423;47.608;19.366;2023-04-15T13:23:08;98132.91;;;11.26;60.76
80116;BME280;69423;47.608;19.366;2023-04-15T13:23:40;98139.25;;;11.25;61.03
80116;BME280;69423;47.608;19.366;2023-04-15T13:24:11;98131.69;;;11.28;61.82
80116;BME280;69423;47.608;19.366;2023-04-15T13:24:42;98128.41;;;11.26;61.30
80116;BME280;69423;47.608;19.366;2023-04-15T13:25:13;98140.31;;;11.24;60.56
80116;BME280;69423;47.608;19.366;2023-04-15T13:25:44;98135.00;;;11.17;60.23
80116;BME280;69423;47.608;19.366;2023-04-15T13:26:16;98126.38;;;11.08;60.34
80116;BME280;69423;47.608;19.366;2023-04-15T13:26:47;98138.28;;;11.12;60.74
80116;BME280;69423;47.608;19.366;2023-04-15T13:27:19;98133.16;;;11.11;60.61
80116;BME280;69423;47.608;19.366;2023-04-15T13:27:49;98141.16;;;11.04;61.24
80116;BME280;69423;47.608;19.366;2023-04-15T13:28:20;98127.59;;;10.99;60.98
80116;BME280;69423;47.608;19.366;2023-04-15T13:28:51;98132.75;;;11.01;61.01
80116;BME280;69423;47.608;19.366;2023-04-15T13:29:22;98136.22;;;11.01;61.20
80116;BME280;69423;47.608;19.366;2023-04-15T13:29:54;98142.97;;;11.04;61.63
80116;BME280;69423;47.608;19.366;2023-04-15T13:30:25;98136.22;;;11.01;61.76
80116;BME280;69423;47.608;19.366;2023-04-15T13:30:57;98141.75;;;10.93;61.82
80116;BME280;69423;47.608;19.366;2023-04-15T13:31:28;98137.47;;;10.92;61.22
80116;BME280;69423;47.608;19.366;2023-04-15T13:31:58;98134.56;;;10.93;61.09
80116;BME280;69423;47.608;19.366;2023-04-15T13:32:31;98131.50;;;10.90;61.67
80116;BME280;69423;47.608;19.366;2023-04-15T13:33:01;98140.34;;;10.90;62.13
80116;BME280;69423;47.608;19.366;2023-04-15T13:33:32;98146.91;;;10.88;62.00
80116;BME280;69423;47.608;19.366;2023-04-15T13:34:03;98139.91;;;10.87;62.06
80116;BME280;69423;47.608;19.366;2023-04-15T13:34:34;98138.91;;;10.88;61.70
80116;BME280;69423;47.608;19.366;2023-04-15T13:35:05;98143.19;;;10.89;62.03
80116;BME280;69423;47.608;19.366;2023-04-15T13:35:36;98139.09;;;10.93;62.46
80116;BME280;69423;47.608;19.366;2023-04-15T13:36:07;98141.97;;;10.98;62.72
80116;BME280;69423;47.608;19.366;2023-04-15T13:36:38;98142.97;;;11.04;62.95
80116;BME280;69423;47.608;19.366;2023-04-15T13:37:09;98142.78;;;11.05;61.48
80116;BME280;69423;47.608;19.366;2023-04-15T13:37:40;98139.72;;;11.08;61.83
80116;BME280;69423;47.608;19.366;2023-04-15T13:38:11;98136.63;;;11.11;61.65
80116;BME280;69423;47.608;19.366;2023-04-15T13:38:42;98135.19;;;11.16;62.30
80116;BME280;69423;47.608;19.366;2023-04-15T13:39:13;98142.38;;;11.22;62.41
80116;BME280;69423;47.608;19.366;2023-04-15T13:39:44;98144.00;;;11.23;61.62
80116;BME280;69423;47.608;19.366;2023-04-15T13:40:15;98139.50;;;11.23;60.91
80116;BME280;69423;47.608;19.366;2023-04-15T13:40:46;98133.94;;;11.25;61.14
80116;BME280;69423;47.608;19.366;2023-04-15T13:41:17;98133.75;;;11.20;63.08
80116;BME280;69423;47.608;19.366;2023-04-15T13:41:47;98136.59;;;11.25;61.86
80116;BME280;69423;47.608;19.366;2023-04-15T13:42:18;98136.00;;;11.29;61.85
80116;BME280;69423;47.608;19.366;2023-04-15T13:42:50;98139.06;;;11.33;61.83
80116;BME280;69423;47.608;19.366;2023-04-15T13:43:22;98130.84;;;11.34;61.40
80116;BME280;69423;47.608;19.366;2023-04-15T13:43:53;98133.31;;;11.36;61.49
80116;BME280;69423;47.608;19.366;2023-04-15T13:44:24;98129.41;;;11.39;61.39
80116;BME280;69423;47.608;19.366;2023-04-15T13:44:55;98135.16;;;11.42;61.84
80116;BME280;69423;47.608;19.366;2023-04-15T13:45:26;98130.44;;;11.38;60.60
80116;BME280;69423;47.608;19.366;2023-04-15T13:45:56;98135.38;;;11.34;60.15
80116;BME280;69423;47.608;19.366;2023-04-15T13:46:27;98132.88;;;11.39;60.87
80116;BME280;69423;47.608;19.366;2023-04-15T13:46:58;98132.06;;;11.45;61.13
80116;BME280;69423;47.608;19.366;2023-04-15T13:47:29;98143.56;;;11.46;61.13
80116;BME280;69423;47.608;19.366;2023-04-15T13:48:00;98134.94;;;11.44;60.50
80116;BME280;69423;47.608;19.366;2023-04-15T13:48:31;98129.19;;;11.40;60.53
80116;BME280;69423;47.608;19.366;2023-04-15T13:49:02;98133.09;;;11.44;60.66
80116;BME280;69423;47.608;19.366;2023-04-15T13:49:33;98136.56;;;11.51;60.76
80116;BME280;69423;47.608;19.366;2023-04-15T13:50:05;98139.44;;;11.57;61.06
80116;BME280;69423;47.608;19.366;2023-04-15T13:50:36;98141.66;;;11.60;62.43
80116;BME280;69423;47.608;19.366;2023-04-15T13:51:06;98139.41;;;11.63;62.94
80116;BME280;69423;47.608;19.366;2023-04-15T13:51:37;98141.66;;;11.73;61.20
80116;BME280;69423;47.608;19.366;2023-04-15T13:52:11;98144.09;;;11.74;60.21
80116;BME280;69423;47.608;19.366;2023-04-15T13:52:42;98145.13;;;11.73;60.17
80116;BME280;69423;47.608;19.366;2023-04-15T13:53:12;98146.75;;;11.74;60.07
80116;BME280;69423;47.608;19.366;2023-04-15T13:53:43;98147.22;;;11.65;60.44
80116;BME280;69423;47.608;19.366;2023-04-15T13:54:14;98143.09;;;11.69;60.29
80116;BME280;69423;47.608;19.366;2023-04-15T13:54:45;98138.16;;;11.66;60.05
80116;BME280;69423;47.608;19.366;2023-04-15T13:55:17;98143.09;;;11.69;60.06
80116;BME280;69423;47.608;19.366;2023-04-15T13:55:48;98147.81;;;11.67;60.05
80116;BME280;69423;47.608;19.366;2023-04-15T13:56:19;98140.44;;;11.69;60.19
80116;BME280;69423;47.608;19.366;2023-04-15T13:56:51;98142.25;;;11.75;59.88
80116;BME280;69423;47.608;19.366;2023-04-15T13:57:21;98149.44;;;11.74;59.48
80116;BME280;69423;47.608;19.366;2023-04-15T13:57:52;98149.63;;;11.80;59.75
80116;BME280;69423;47.608;19.366;2023-04-15T13:58:23;98147.34;;;11.83;60.18
80116;BME280;69423;47.608;19.366;2023-04-15T13:58:54;98144.06;;;11.88;60.42
80116;BME280;69423;47.608;19.366;2023-04-15T13:59:28;98143.84;;;11.89;60.14
80116;BME280;69423;47.608;19.366;2023-04-15T13:59:59;98146.31;;;11.91;59.69
80116;BME280;69423;47.608;19.366;2023-04-15T14:00:30;98146.53;;;11.89;59.65
80116;BME280;69423;47.608;19.366;2023-04-15T14:01:02;98141.38;;;11.88;59.70
80116;BME280;69423;47.608;19.366;2023-04-15T14:01:34;98138.56;;;11.69;62.24
80116;BME280;69423;47.608;19.366;2023-04-15T14:02:05;98140.84;;;11.66;62.00
80116;BME280;69423;47.608;19.366;2023-04-15T14:02:36;98147.00;;;11.73;62.20
80116;BME280;69423;47.608;19.366;2023-04-15T14:03:07;98138.13;;;11.79;61.19
80116;BME280;69423;47.608;19.366;2023-04-15T14:03:38;98148.22;;;11.77;61.35
80116;BME280;69423;47.608;19.366;2023-04-15T14:04:09;98146.56;;;11.76;62.16
80116;BME280;69423;47.608;19.366;2023-04-15T14:04:40;98156.22;;;11.70;62.01
80116;BME280;69423;47.608;19.366;2023-04-15T14:05:11;98151.28;;;11.74;60.98
80116;BME280;69423;47.608;19.366;2023-04-15T14:05:42;98151.91;;;11.76;60.64
80116;BME280;69423;47.608;19.366;2023-04-15T14:06:12;98150.03;;;11.77;60.80
80116;BME280;69423;47.608;19.366;2023-04-15T14:06:43;98151.25;;;11.81;60.77
80116;BME280;69423;47.608;19.366;2023-04-15T14:07:15;98158.25;;;11.82;60.59
80116;BME280;69423;47.608;19.366;2023-04-15T14:07:45;98151.91;;;11.76;60.22
80116;BME280;69423;47.608;19.366;2023-04-15T14:08:16;98145.34;;;11.72;60.42
80116;BME280;69423;47.608;19.366;2023-04-15T14:08:47;98154.41;;;11.71;60.79
80116;BME280;69423;47.608;19.366;2023-04-15T14:09:18;98158.91;;;11.77;60.78
80116;BME280;69423;47.608;19.366;2023-04-15T14:09:51;98152.50;;;11.78;60.56
80116;BME280;69423;47.608;19.366;2023-04-15T14:10:22;98151.25;;;11.81;60.87
80116;BME280;69423;47.608;19.366;2023-04-15T14:10:54;98155.97;;;11.85;61.64
80116;BME280;69423;47.608;19.366;2023-04-15T14:11:26;98158.63;;;11.85;61.63
80116;BME280;69423;47.608;19.366;2023-04-15T14:11:57;98150.84;;;11.84;60.73
80116;BME280;69423;47.608;19.366;2023-04-15T14:12:29;98151.28;;;11.74;60.30
80116;BME280;69423;47.608;19.366;2023-04-15T14:13:00;98157.06;;;11.71;60.11
80116;BME280;69423;47.608;19.366;2023-04-15T14:13:31;98151.34;;;11.61;59.64
80116;BME280;69423;47.608;19.366;2023-04-15T14:14:02;98146.59;;;11.63;60.12
80116;BME280;69423;47.608;19.366;2023-04-15T14:14:33;98152.75;;;11.63;62.43
80116;BME280;69423;47.608;19.366;2023-04-15T14:15:04;98151.50;;;11.66;60.81
80116;BME280;69423;47.608;19.366;2023-04-15T14:15:35;98150.50;;;11.67;61.82
80116;BME280;69423;47.608;19.366;2023-04-15T14:16:06;98143.72;;;11.71;62.29
80116;BME280;69423;47.608;19.366;2023-04-15T14:16:37;98160.34;;;11.73;61.61
80116;BME280;69423;47.608;19.366;2023-04-15T14:17:08;98156.22;;;11.70;60.82
80116;BME280;69423;47.608;19.366;2023-04-15T14:17:38;98153.56;;;11.70;61.38
80116;BME280;69423;47.608;19.366;2023-04-15T14:18:11;98156.25;;;11.64;62.30
80116;BME280;69423;47.608;19.366;2023-04-15T14:18:43;98150.72;;;11.59;62.22
80116;BME280;69423;47.608;19.366;2023-04-15T14:19:14;98161.19;;;11.60;62.56
80116;BME280;69423;47.608;19.366;2023-04-15T14:19:45;98157.06;;;11.64;62.82
80116;BME280;69423;47.608;19.366;2023-04-15T14:20:16;98151.13;;;11.69;61.68
80116;BME280;69423;47.608;19.366;2023-04-15T14:20:47;98150.06;;;11.70;60.81
80116;BME280;69423;47.608;19.366;2023-04-15T14:21:18;98154.63;;;11.63;60.96
80116;BME280;69423;47.608;19.366;2023-04-15T14:21:49;98152.97;;;11.62;61.09
80116;BME280;69423;47.608;19.366;2023-04-15T14:22:20;98155.03;;;11.60;61.22
80116;BME280;69423;47.608;19.366;2023-04-15T14:22:50;98155.63;;;11.62;60.97
80116;BME280;69423;47.608;19.366;2023-04-15T14:23:22;98161.78;;;11.62;60.47
80116;BME280;69423;47.608;19.366;2023-04-15T14:23:53;98152.16;;;11.54;60.16
80116;BME280;69423;47.608;19.366;2023-04-15T14:24:24;98156.47;;;11.55;60.58
80116;BME280;69423;47.608;19.366;2023-04-15T14:24:55;98159.97;;;11.49;60.25
80116;BME280;69423;47.608;19.366;2023-04-15T14:25:25;98158.97;;;11.50;60.51
80116;BME280;69423;47.608;19.366;2023-04-15T14:25:57;98157.31;;;11.49;60.65
80116;BME280;69423;47.608;19.366;2023-04-15T14:26:27;98154.03;;;11.41;60.44
80116;BME280;69423;47.608;19.366;2023-04-15T14:26:58;98156.72;;;11.41;60.41
80116;BME280;69423;47.608;19.366;2023-04-15T14:27:29;98160.81;;;11.43;60.76
80116;BME280;69423;47.608;19.366;2023-04-15T14:28:01;98167.59;;;11.39;61.35
80116;BME280;69423;47.608;19.366;2023-04-15T14:28:32;98161.84;;;11.42;61.84
80116;BME280;69423;47.608;19.366;2023-04-15T14:29:03;98164.50;;;11.42;61.77
80116;BME280;69423;47.608;19.366;2023-04-15T14:29:34;98155.69;;;11.42;61.83
80116;BME280;69423;47.608;19.366;2023-04-15T14:30:06;98163.09;;;11.40;61.69
80116;BME280;69423;47.608;19.366;2023-04-15T14:30:37;98163.09;;;11.40;62.02
80116;BME280;69423;47.608;19.366;2023-04-15T14:31:08;98159.19;;;11.36;61.83
80116;BME280;69423;47.608;19.366;2023-04-15T14:31:38;98156.31;;;11.30;61.69
80116;BME280;69423;47.608;19.366;2023-04-15T14:32:09;98159.59;;;11.32;61.36
80116;BME280;69423;47.608;19.366;2023-04-15T14:32:40;98165.94;;;11.25;61.62
80116;BME280;69423;47.608;19.366;2023-04-15T14:33:11;98168.84;;;11.30;61.79
80116;BME280;69423;47.608;19.366;2023-04-15T14:33:42;98162.47;;;11.31;62.37
80116;BME280;69423;47.608;19.366;2023-04-15T14:34:13;98160.84;;;11.30;61.78
80116;BME280;69423;47.608;19.366;2023-04-15T14:34:43;98159.19;;;11.29;61.87
80116;BME280;69423;47.608;19.366;2023-04-15T14:35:14;98164.50;;;11.29;62.78
80116;BME280;69423;47.608;19.366;2023-04-15T14:35:45;98164.13;;;11.32;62.88
80116;BME280;69423;47.608;19.366;2023-04-15T14:36:16;98159.78;;;11.31;62.36
80116;BME280;69423;47.608;19.366;2023-04-15T14:36:47;98159.19;;;11.29;62.02
80116;BME280;69423;47.608;19.366;2023-04-15T14:37:18;98167.41;;;11.27;61.91
80116;BME280;69423;47.608;19.366;2023-04-15T14:37:49;98172.34;;;11.24;62.05
80116;BME280;69423;47.608;19.366;2023-04-15T14:38:20;98165.97;;;11.18;62.79
80116;BME280;69423;47.608;19.366;2023-04-15T14:38:52;98172.97;;;11.19;62.49
80116;BME280;69423;47.608;19.366;2023-04-15T14:39:23;98167.41;;;11.14;62.61
80116;BME280;69423;47.608;19.366;2023-04-15T14:39:53;98170.28;;;11.06;63.01
80116;BME280;69423;47.608;19.366;2023-04-15T14:40:24;98169.66;;;10.97;63.32
80116;BME280;69423;47.608;19.366;2023-04-15T14:40:55;98175.22;;;11.02;63.27
80116;BME280;69423;47.608;19.366;2023-04-15T14:41:26;98168.84;;;11.03;62.94
80116;BME280;69423;47.608;19.366;2023-04-15T14:41:57;98168.66;;;11.05;63.17
80116;BME280;69423;47.608;19.366;2023-04-15T14:42:28;98170.88;;;11.08;63.29
80116;BME280;69423;47.608;19.366;2023-04-15T14:42:59;98165.34;;;11.09;63.45
80116;BME280;69423;47.608;19.366;2023-04-15T14:43:30;98172.94;;;11.06;63.49
80116;BME280;69423;47.608;19.366;2023-04-15T14:44:01;98167.59;;;11.06;64.33
80116;BME280;69423;47.608;19.366;2023-04-15T14:44:32;98160.03;;;11.09;64.32
80116;BME280;69423;47.608;19.366;2023-04-15T14:45:03;98161.88;;;11.16;64.98
80116;BME280;69423;47.608;19.366;2023-04-15T14:45:34;98168.63;;;11.18;64.41
80116;BME280;69423;47.608;19.366;2023-04-15T14:46:05;98169.03;;;11.22;63.74
80116;BME280;69423;47.608;19.366;2023-04-15T14:46:38;98169.66;;;11.24;64.10
80116;BME280;69423;47.608;19.366;2023-04-15T14:47:10;98171.28;;;11.25;63.74
80116;BME280;69423;47.608;19.366;2023-04-15T14:47:41;98167.00;;;11.24;63.68
80116;BME280;69423;47.608;19.366;2023-04-15T14:48:12;98172.13;;;11.19;63.66
80116;BME280;69423;47.608;19.366;2023-04-15T14:48:43;98173.16;;;11.18;63.57
80116;BME280;69423;47.608;19.366;2023-04-15T14:49:14;98177.47;;;11.12;63.27
80116;BME280;69423;47.608;19.366;2023-04-15T14:49:45;98180.56;;;11.09;63.69
80116;BME280;69423;47.608;19.366;2023-04-15T14:50:16;98171.94;;;11.00;63.89
80116;BME280;69423;47.608;19.366;2023-04-15T14:50:47;98173.56;;;10.94;63.38
80116;BME280;69423;47.608;19.366;2023-04-15T14:51:18;98169.03;;;10.95;63.79
80116;BME280;69423;47.608;19.366;2023-04-15T14:51:49;98170.47;;;10.98;63.46
80116;BME280;69423;47.608;19.366;2023-04-15T14:52:20;98172.13;;;10.99;63.41
80116;BME280;69423;47.608;19.366;2023-04-15T14:52:51;98173.56;;;11.01;64.08
80116;BME280;69423;47.608;19.366;2023-04-15T14:53:21;98178.50;;;11.04;63.81
80116;BME280;69423;47.608;19.366;2023-04-15T14:53:52;98178.50;;;11.04;63.42
80116;BME280;69423;47.608;19.366;2023-04-15T14:54:23;98173.56;;;11.01;64.12
80116;BME280;69423;47.608;19.366;2023-04-15T14:54:54;98180.31;;;11.04;64.29
80116;BME280;69423;47.608;19.366;2023-04-15T14:55:25;98180.75;;;11.07;64.54
80116;BME280;69423;47.608;19.366;2023-04-15T14:55:56;98175.22;;;11.02;65.17
80116;BME280;69423;47.608;19.366;2023-04-15T14:56:27;98185.47;;;11.05;64.51
80116;BME280;69423;47.608;19.366;2023-04-15T14:56:58;98181.38;;;11.03;63.73
80116;BME280;69423;47.608;19.366;2023-04-15T14:57:28;98180.94;;;11.06;63.95
80116;BME280;69423;47.608;19.366;2023-04-15T14:58:00;98179.50;;;11.10;64.35
80116;BME280;69423;47.608;19.366;2023-04-15T14:58:32;98177.28;;;11.07;64.80
80116;BME280;69423;47.608;19.366;2023-04-15T14:59:02;98182.41;;;11.08;64.46
80116;BME280;69423;47.608;19.366;2023-04-15T14:59:33;98185.06;;;11.08;63.80
80116;BME280;69423;47.608;19.366;2023-04-15T15:00:05;98178.69;;;11.09;63.61
80116;BME280;69423;47.608;19.366;2023-04-15T15:00:38;98179.13;;;11.06;63.75
80116;BME280;69423;47.608;19.366;2023-04-15T15:01:11;98181.16;;;11.11;64.86
80116;BME280;69423;47.608;19.366;2023-04-15T15:01:42;98178.50;;;11.11;64.04
80116;BME280;69423;47.608;19.366;2023-04-15T15:02:13;98182.41;;;11.08;63.75
80116;BME280;69423;47.608;19.366;2023-04-15T15:02:44;98185.69;;;11.10;64.19
80116;BME280;69423;47.608;19.366;2023-04-15T15:03:17;98187.94;;;11.07;63.65
80116;BME280;69423;47.608;19.366;2023-04-15T15:03:48;98182.59;;;11.07;63.74
80116;BME280;69423;47.608;19.366;2023-04-15T15:04:19;98183.84;;;11.04;63.30
80116;BME280;69423;47.608;19.366;2023-04-15T15:04:50;98191.22;;;11.02;63.71
80116;BME280;69423;47.608;19.366;2023-04-15T15:05:21;98183.63;;;10.99;63.80
80116;BME280;69423;47.608;19.366;2023-04-15T15:05:52;98184.22;;;11.01;63.75
80116;BME280;69423;47.608;19.366;2023-04-15T15:06:23;98189.19;;;11.04;63.89
80116;BME280;69423;47.608;19.366;2023-04-15T15:06:54;98187.31;;;11.05;63.89
80116;BME280;69423;47.608;19.366;2023-04-15T15:07:25;98185.06;;;11.08;63.49
80116;BME280;69423;47.608;19.366;2023-04-15T15:07:56;98189.16;;;11.11;63.62
80116;BME280;69423;47.608;19.366;2023-04-15T15:08:27;98195.50;;;11.17;64.03
80116;BME280;69423;47.608;19.366;2023-04-15T15:08:58;98194.06;;;11.21;63.81
80116;BME280;69423;47.608;19.366;2023-04-15T15:09:30;98190.41;;;11.22;63.54
80116;BME280;69423;47.608;19.366;2023-04-15T15:10:01;98188.97;;;11.19;63.65
80116;BME280;69423;47.608;19.366;2023-04-15T15:10:33;98193.25;;;11.20;63.95
80116;BME280;69423;47.608;19.366;2023-04-15T15:11:04;98185.88;;;11.22;63.54
80116;BME280;69423;47.608;19.366;2023-04-15T15:11:34;98193.88;;;11.22;63.02
80116;BME280;69423;47.608;19.366;2023-04-15T15:12:05;98187.31;;;11.25;63.68
80116;BME280;69423;47.608;19.366;2023-04-15T15:12:36;98188.97;;;11.26;63.01
80116;BME280;69423;47.608;19.366;2023-04-15T15:13:09;98189.97;;;11.25;62.86
80116;BME280;69423;47.608;19.366;2023-04-15T15:13:40;98193.06;;;11.22;62.73
80116;BME280;69423;47.608;19.366;2023-04-15T15:14:11;98189.97;;;11.18;62.80
80116;BME280;69423;47.608;19.366;2023-04-15T15:14:41;98196.75;;;11.14;62.58
80116;BME280;69423;47.608;19.366;2023-04-15T15:15:12;98184.84;;;11.17;62.40
80116;BME280;69423;47.608;19.366;2023-04-15T15:15:43;98187.31;;;11.11;62.62
80116;BME280;69423;47.608;19.366;2023-04-15T15:16:14;98191.84;;;11.11;62.65
80116;BME280;69423;47.608;19.366;2023-04-15T15:16:45;98191.63;;;11.12;62.51
80116;BME280;69423;47.608;19.366;2023-04-15T15:17:16;98192.03;;;11.16;62.73
80116;BME280;69423;47.608;19.366;2023-04-15T15:17:47;98192.25;;;11.14;62.53
80116;BME280;69423;47.608;19.366;2023-04-15T15:18:18;98190.19;;;11.17;62.81
80116;BME280;69423;47.608;19.366;2023-04-15T15:18:50;98196.97;;;11.19;62.63
80116;BME280;69423;47.608;19.366;2023-04-15T15:19:20;98195.31;;;11.18;62.98
80116;BME280;69423;47.608;19.366;2023-04-15T15:19:51;98196.13;;;11.19;62.31
80116;BME280;69423;47.608;19.366;2023-04-15T15:20:23;98195.72;;;11.22;62.54
80116;BME280;69423;47.608;19.366;2023-04-15T15:20:54;98195.13;;;11.20;62.94
80116;BME280;69423;47.608;19.366;2023-04-15T15:21:25;98199.00;;;11.24;62.29
80116;BME280;69423;47.608;19.366;2023-04-15T15:21:56;98202.06;;;11.21;62.82
80116;BME280;69423;47.608;19.366;2023-04-15T15:22:27;98200.66;;;11.11;64.05
80116;BME280;69423;47.608;19.366;2023-04-15T15:22:59;98199.22;;;11.16;64.29
80116;BME280;69423;47.608;19.366;2023-04-15T15:23:30;98199.03;;;11.10;64.10
80116;BME280;69423;47.608;19.366;2023-04-15T15:24:01;98200.66;;;11.11;63.81
80116;BME280;69423;47.608;19.366;2023-04-15T15:24:32;98192.47;;;11.13;64.40
80116;BME280;69423;47.608;19.366;2023-04-15T15:25:03;98192.84;;;11.17;64.35
80116;BME280;69423;47.608;19.366;2023-04-15T15:25:34;98195.31;;;11.18;64.36
80116;BME280;69423;47.608;19.366;2023-04-15T15:26:05;98194.69;;;11.16;64.67
80116;BME280;69423;47.608;19.366;2023-04-15T15:26:36;98200.25;;;11.14;64.45
80116;BME280;69423;47.608;19.366;2023-04-15T15:27:07;98193.69;;;11.10;65.91
80116;BME280;69423;47.608;19.366;2023-04-15T15:27:38;98196.56;;;11.16;64.57
80116;BME280;69423;47.608;19.366;2023-04-15T15:28:09;98190.78;;;11.19;64.26
80116;BME280;69423;47.608;19.366;2023-04-15T15:28:40;98197.38;;;11.16;64.14
80116;BME280;69423;47.608;19.366;2023-04-15T15:29:11;98204.38;;;11.10;64.31
80116;BME280;69423;47.608;19.366;2023-04-15T15:29:42;98198.19;;;11.17;64.51
80116;BME280;69423;47.608;19.366;2023-04-15T15:30:13;98198.19;;;11.17;64.53
80116;BME280;69423;47.608;19.366;2023-04-15T15:30:44;98201.47;;;11.19;64.60
80116;BME280;69423;47.608;19.366;2023-04-15T15:31:15;98206.81;;;11.19;65.26
80116;BME280;69423;47.608;19.366;2023-04-15T15:31:46;98205.59;;;11.21;65.71
80116;BME280;69423;47.608;19.366;2023-04-15T15:32:17;98200.03;;;11.23;64.75
80116;BME280;69423;47.608;19.366;2023-04-15T15:32:48;98199.00;;;11.24;64.63
80116;BME280;69423;47.608;19.366;2023-04-15T15:33:19;98201.06;;;11.22;64.60
80116;BME280;69423;47.608;19.366;2023-04-15T15:33:50;98203.53;;;11.23;64.91
80116;BME280;69423;47.608;19.366;2023-04-15T15:34:22;98202.69;;;11.23;64.95
80116;BME280;69423;47.608;19.366;2023-04-15T15:34:53;98206.59;;;11.20;64.46
80116;BME280;69423;47.608;19.366;2023-04-15T15:35:24;98200.88;;;11.23;65.08